BBM weather

Battambang Airport
Battambang, Baat Dambang, Cambodia

Public forecast

Using degrees Celsius for public forecast. Weather courtesy of forecast.io.

METAR (pilot weather report)

Closest report is Siem Reap International Airport, 39.3 nm (72.7 km) ENE. Retrieved 2019/04/24 21:30 UTC (0 seconds ago):

VDSR 242130Z 24002KT 9000 NSC 28/25 Q1006

TAF (pilot weather forecast)

Closest forecast is Siem Reap International Airport, 39.3 nm (72.7 km) ENE. Retrieved 2019/04/24 18:00 UTC (3 hours ago):

TAF VDPP 241700Z 2418/2512 19007KT 9999 SCT017= TAF VDSR 241700Z 2418/2512 16007KT 9999 SCT017